Time;durP1;ratioP1;P1;durP2;ratioP2;P2;SDS_P1;SDS_P2;PMS_P1;PMS_P2;Temp;Humidity;BMP_temperature;BMP_pressure;BME280_temperature;BME280_humidity;BME280_pressure;Samples;Min_cycle;Max_cycle;Signal;HPM_P1;HPM_P2
2021/03/31 00:00:22;;;;;;;16.62;8.60;;;9.00;70.90;;;;;;1792294;79;21691;-75
2021/03/31 00:03:00;;;;;;;15.38;8.50;;;9.00;70.90;;;;;;1791132;80;21141;-75
2021/03/31 00:05:29;;;;;;;17.98;8.45;;;9.10;70.70;;;;;;1794464;80;21157;-75
2021/03/31 00:07:57;;;;;;;14.90;8.13;;;9.20;70.40;;;;;;1796177;79;21540;-74
2021/03/31 00:10:39;;;;;;;13.53;8.05;;;9.00;70.60;;;;;;1796764;79;21299;-74
2021/03/31 00:13:07;;;;;;;15.65;8.55;;;8.90;71.90;;;;;;1795450;79;21152;-75
2021/03/31 00:15:35;;;;;;;14.38;7.72;;;8.80;71.50;;;;;;1796174;79;21576;-76
2021/03/31 00:18:10;;;;;;;12.55;7.80;;;8.80;71.60;;;;;;1796375;80;21149;-76
2021/03/31 00:20:40;;;;;;;16.52;8.08;;;8.80;71.90;;;;;;1796259;80;21090;-75
2021/03/31 00:23:14;;;;;;;15.83;7.80;;;8.60;72.30;;;;;;1796335;79;21153;-75
2021/03/31 00:25:42;;;;;;;14.78;7.90;;;8.70;72.60;;;;;;1796312;80;21283;-75
2021/03/31 00:28:12;;;;;;;15.95;7.75;;;8.60;72.40;;;;;;1796485;80;21287;-75
2021/03/31 00:30:42;;;;;;;14.03;8.40;;;8.60;72.70;;;;;;1796604;79;21157;-75
2021/03/31 00:33:12;;;;;;;13.28;7.85;;;8.50;72.80;;;;;;1796116;80;21133;-77
2021/03/31 00:35:40;;;;;;;14.55;8.25;;;8.50;73.10;;;;;;1796372;79;21164;-76
2021/03/31 00:38:10;;;;;;;13.25;8.00;;;8.50;73.20;;;;;;1796208;80;21106;-77
2021/03/31 00:40:42;;;;;;;13.88;7.65;;;8.50;73.60;;;;;;1796058;79;21138;-77
2021/03/31 00:43:11;;;;;;;14.33;7.83;;;8.50;73.30;;;;;;1796009;79;21138;-76
2021/03/31 00:45:41;;;;;;;13.05;7.90;;;8.50;73.30;;;;;;1796503;80;21145;-76
2021/03/31 00:48:16;;;;;;;14.55;8.30;;;8.50;73.30;;;;;;1796279;79;21133;-76
2021/03/31 00:50:55;;;;;;;13.38;7.67;;;8.50;73.40;;;;;;1796427;79;21161;-76
2021/03/31 00:53:37;;;;;;;14.20;7.95;;;8.50;73.70;;;;;;1796174;79;21098;-75
2021/03/31 00:56:06;;;;;;;11.90;7.60;;;8.40;73.60;;;;;;1795828;79;21144;-76
2021/03/31 00:58:35;;;;;;;13.68;7.30;;;8.50;73.70;;;;;;1796346;79;21162;-76
2021/03/31 01:01:03;;;;;;;12.95;7.55;;;8.40;73.20;;;;;;1796216;79;21153;-76
2021/03/31 01:03:30;;;;;;;16.60;8.18;;;8.40;73.50;;;;;;1796413;79;21137;-76
2021/03/31 01:05:58;;;;;;;13.05;6.83;;;8.40;73.50;;;;;;1793601;79;21133;-76
2021/03/31 01:08:26;;;;;;;15.25;7.40;;;8.40;73.80;;;;;;1792327;79;21252;-76
2021/03/31 01:10:58;;;;;;;13.88;6.83;;;8.40;73.60;;;;;;1792472;79;21536;-76
2021/03/31 01:14:07;;;;;;;13.68;7.33;;;8.30;73.60;;;;;;1792360;79;21150;-76
2021/03/31 01:16:59;;;;;;;16.93;7.55;;;8.30;73.70;;;;;;1792551;79;21149;-76
2021/03/31 01:20:06;;;;;;;13.45;6.70;;;8.30;74.30;;;;;;1792119;80;21591;-75
2021/03/31 01:22:55;;;;;;;13.55;7.83;;;8.30;74.00;;;;;;1792584;80;21145;-75
2021/03/31 01:25:58;;;;;;;11.93;7.33;;;8.10;74.90;;;;;;1792583;79;21110;-74
2021/03/31 01:29:08;;;;;;;12.60;7.05;;;8.00;75.30;;;;;;1792335;79;21276;-76
2021/03/31 01:32:22;;;;;;;13.20;7.53;;;8.00;75.30;;;;;;1792344;79;21272;-75
2021/03/31 01:34:59;;;;;;;14.00;7.40;;;7.90;75.40;;;;;;1792290;80;21141;-74
2021/03/31 01:37:51;;;;;;;15.40;7.58;;;8.00;75.40;;;;;;1792698;80;21098;-73
2021/03/31 01:40:23;;;;;;;12.70;7.22;;;7.90;75.60;;;;;;1792041;79;21679;-73
2021/03/31 01:42:56;;;;;;;13.53;6.97;;;7.80;76.00;;;;;;1792436;80;21125;-73
2021/03/31 01:45:31;;;;;;;12.88;7.20;;;7.70;76.50;;;;;;1792331;79;21280;-74
2021/03/31 01:48:04;;;;;;;14.45;6.75;;;7.80;75.80;;;;;;1792516;79;21260;-74
2021/03/31 01:50:35;;;;;;;10.78;6.10;;;7.80;75.80;;;;;;1792253;79;21288;-74
2021/03/31 01:53:05;;;;;;;14.10;6.95;;;7.90;75.60;;;;;;1792417;80;21275;-74
2021/03/31 01:55:34;;;;;;;12.37;6.65;;;7.90;75.50;;;;;;1792489;80;21138;-74
2021/03/31 01:58:05;;;;;;;11.55;6.83;;;7.90;75.40;;;;;;1792406;79;21142;-74
2021/03/31 02:00:34;;;;;;;11.33;6.17;;;8.00;75.40;;;;;;1792278;79;21122;-74
2021/03/31 02:03:02;;;;;;;12.20;6.53;;;8.00;74.90;;;;;;1792307;79;21106;-75
2021/03/31 02:05:31;;;;;;;11.05;6.65;;;8.00;75.00;;;;;;1792185;79;21319;-76
2021/03/31 02:08:01;;;;;;;12.45;6.25;;;8.00;74.90;;;;;;1792578;79;21556;-75
2021/03/31 02:10:30;;;;;;;12.68;6.42;;;8.00;74.90;;;;;;1792984;79;21137;-75
2021/03/31 02:12:59;;;;;;;11.65;6.33;;;8.10;74.90;;;;;;1792750;79;21153;-76
2021/03/31 02:15:30;;;;;;;10.55;6.33;;;8.10;74.80;;;;;;1792266;80;21110;-76
2021/03/31 02:18:00;;;;;;;11.90;7.00;;;8.10;74.40;;;;;;1792404;80;21113;-74
2021/03/31 02:20:28;;;;;;;11.00;6.67;;;8.10;74.20;;;;;;1792473;80;21555;-74
2021/03/31 02:22:59;;;;;;;12.35;6.97;;;8.20;74.10;;;;;;1792292;79;21272;-74
2021/03/31 02:25:27;;;;;;;11.53;6.50;;;8.10;74.40;;;;;;1792533;80;21129;-74
2021/03/31 02:27:55;;;;;;;16.80;6.92;;;8.00;74.90;;;;;;1792552;79;21156;-74
2021/03/31 02:30:27;;;;;;;13.30;7.20;;;8.00;75.10;;;;;;1792270;79;21287;-74
2021/03/31 02:33:00;;;;;;;12.33;6.70;;;7.90;75.80;;;;;;1792379;79;21714;-76
2021/03/31 02:35:31;;;;;;;11.80;6.80;;;7.90;76.20;;;;;;1792346;80;21126;-76
2021/03/31 02:38:09;;;;;;;13.48;7.30;;;7.90;75.70;;;;;;1792353;80;21691;-76
2021/03/31 02:40:40;;;;;;;11.43;6.92;;;7.90;76.20;;;;;;1792260;79;21283;-76
2021/03/31 02:43:11;;;;;;;12.50;7.03;;;7.80;76.60;;;;;;1792879;80;21130;-75
2021/03/31 02:45:42;;;;;;;11.70;7.10;;;7.70;76.90;;;;;;1792276;79;21272;-76
2021/03/31 02:48:15;;;;;;;10.72;6.50;;;7.70;77.30;;;;;;1792830;80;21148;-75
2021/03/31 02:50:45;;;;;;;15.15;7.33;;;7.60;77.90;;;;;;1792292;79;21276;-76
2021/03/31 02:53:15;;;;;;;12.07;6.95;;;7.70;77.80;;;;;;1792450;80;21161;-75
2021/03/31 02:55:43;;;;;;;15.05;7.05;;;7.80;77.00;;;;;;1792356;80;21153;-76
2021/03/31 02:58:13;;;;;;;10.80;6.20;;;7.80;77.10;;;;;;1792523;79;21145;-75
2021/03/31 03:00:41;;;;;;;11.90;6.47;;;7.70;77.30;;;;;;1792248;79;21706;-75
2021/03/31 03:03:11;;;;;;;11.68;6.37;;;7.70;77.30;;;;;;1792454;79;21569;-76
2021/03/31 03:05:40;;;;;;;12.47;6.70;;;7.80;77.70;;;;;;1793261;79;21162;-75
2021/03/31 03:08:08;;;;;;;11.80;6.67;;;7.70;77.40;;;;;;1796178;79;21144;-75
2021/03/31 03:10:36;;;;;;;11.97;6.75;;;7.70;77.40;;;;;;1796093;79;21110;-75
2021/03/31 03:13:07;;;;;;;10.45;6.03;;;7.80;76.90;;;;;;1796343;80;21568;-75
2021/03/31 03:15:36;;;;;;;14.20;6.55;;;7.90;76.50;;;;;;1796122;79;21145;-76
2021/03/31 03:18:05;;;;;;;11.45;6.35;;;7.80;76.60;;;;;;1796149;79;21126;-75
2021/03/31 03:20:33;;;;;;;10.38;6.03;;;7.90;76.50;;;;;;1796147;80;21125;-74
2021/03/31 03:23:01;;;;;;;12.00;6.55;;;7.80;76.10;;;;;;1796257;79;21575;-75
2021/03/31 03:25:30;;;;;;;10.08;6.00;;;7.70;76.80;;;;;;1796126;79;21156;-74
2021/03/31 03:27:58;;;;;;;9.93;6.55;;;7.80;76.20;;;;;;1796338;79;21583;-75
2021/03/31 03:30:27;;;;;;;13.25;6.30;;;7.70;76.70;;;;;;1796417;79;21137;-75
2021/03/31 03:32:55;;;;;;;12.45;6.03;;;7.80;76.50;;;;;;1796403;80;21169;-74
2021/03/31 03:35:27;;;;;;;13.00;7.55;;;7.80;76.20;;;;;;1796403;79;21157;-74
2021/03/31 03:37:55;;;;;;;11.80;6.05;;;7.70;78.00;;;;;;1796629;79;21144;-75
2021/03/31 03:40:27;;;;;;;10.60;6.17;;;7.70;78.30;;;;;;1796317;80;21149;-74
2021/03/31 03:42:55;;;;;;;10.48;6.25;;;7.70;77.90;;;;;;1796096;80;21564;-74
2021/03/31 03:45:25;;;;;;;11.70;6.25;;;7.60;78.30;;;;;;1796313;80;21551;-75
2021/03/31 03:47:54;;;;;;;11.55;6.53;;;7.60;78.40;;;;;;1796509;78;21128;-74
2021/03/31 03:50:23;;;;;;;12.23;6.05;;;7.60;77.80;;;;;;1796084;80;21164;-74
2021/03/31 03:52:53;;;;;;;10.15;5.83;;;7.70;77.00;;;;;;1796270;79;21144;-75
2021/03/31 03:55:23;;;;;;;12.65;6.37;;;7.70;76.30;;;;;;1796079;80;21140;-75
2021/03/31 03:57:53;;;;;;;14.95;6.37;;;7.70;76.10;;;;;;1796193;80;21595;-75
2021/03/31 04:00:25;;;;;;;10.43;5.83;;;7.70;76.40;;;;;;1796275;80;21547;-75
2021/03/31 04:02:55;;;;;;;21.57;6.42;;;7.70;76.30;;;;;;1796292;80;21152;-75
2021/03/31 04:05:25;;;;;;;13.05;6.00;;;7.60;76.20;;;;;;1795864;79;21129;-75
2021/03/31 04:07:54;;;;;;;13.00;5.75;;;7.50;76.60;;;;;;1795630;80;21160;-74
2021/03/31 04:10:28;;;;;;;10.45;5.83;;;7.50;77.10;;;;;;1795823;80;21147;-76
2021/03/31 04:13:00;;;;;;;11.18;6.12;;;7.40;77.30;;;;;;1795617;80;21144;-75
2021/03/31 04:15:29;;;;;;;12.43;6.80;;;7.50;77.30;;;;;;1795746;80;21133;-76
2021/03/31 04:18:01;;;;;;;10.50;6.62;;;7.30;77.50;;;;;;1795877;80;21145;-77
2021/03/31 04:20:31;;;;;;;13.78;6.83;;;7.10;78.20;;;;;;1795712;80;21140;-77
2021/03/31 04:22:59;;;;;;;12.63;7.97;;;7.00;78.90;;;;;;1795695;80;21141;-74
2021/03/31 04:25:27;;;;;;;14.18;7.20;;;7.00;79.40;;;;;;1795948;78;21128;-73
2021/03/31 04:27:59;;;;;;;12.13;7.50;;;7.00;79.70;;;;;;1800092;78;21128;-75
2021/03/31 04:30:28;;;;;;;14.13;7.08;;;6.90;79.80;;;;;;1806730;78;21554;-74
2021/03/31 04:32:58;;;;;;;14.13;7.10;;;6.80;80.30;;;;;;1795580;80;21137;-73
2021/03/31 04:35:26;;;;;;;12.60;6.65;;;6.90;80.70;;;;;;1799870;78;21133;-75
2021/03/31 04:38:11;;;;;;;13.05;6.75;;;6.90;80.30;;;;;;1795710;79;21142;-75
2021/03/31 04:40:58;;;;;;;11.33;6.10;;;7.00;80.10;;;;;;1799915;78;21144;-74
2021/03/31 04:43:32;;;;;;;11.22;6.67;;;7.10;79.70;;;;;;1806764;78;21133;-74
2021/03/31 04:46:03;;;;;;;10.63;6.12;;;7.20;79.20;;;;;;1804519;78;21109;-74
2021/03/31 04:48:32;;;;;;;9.85;6.62;;;7.20;79.00;;;;;;1804644;78;21121;-75
2021/03/31 04:50:59;;;;;;;10.85;6.35;;;7.20;79.20;;;;;;1804636;78;21129;-75
2021/03/31 04:53:27;;;;;;;11.78;6.00;;;7.20;80.10;;;;;;1795711;80;21136;-73
2021/03/31 04:55:55;;;;;;;13.05;5.85;;;7.20;80.60;;;;;;1800222;78;21157;-72
2021/03/31 04:58:23;;;;;;;11.03;6.40;;;7.30;79.90;;;;;;1800335;78;21136;-76
2021/03/31 05:00:51;;;;;;;11.63;5.92;;;7.40;79.50;;;;;;1795507;79;21598;-73
2021/03/31 05:03:19;;;;;;;11.30;5.65;;;7.50;78.90;;;;;;1795590;79;21144;-73
2021/03/31 05:05:46;;;;;;;9.68;5.72;;;7.60;78.10;;;;;;1795413;79;21129;-72
2021/03/31 05:08:15;;;;;;;12.28;6.03;;;7.70;77.50;;;;;;1804521;78;21136;-74
2021/03/31 05:10:43;;;;;;;12.47;5.92;;;7.70;77.50;;;;;;1800072;78;21137;-72
2021/03/31 05:13:10;;;;;;;11.85;6.25;;;7.80;77.40;;;;;;1796254;80;21157;-73
2021/03/31 05:15:38;;;;;;;9.38;5.47;;;7.80;76.60;;;;;;1795721;80;21141;-74
2021/03/31 05:18:06;;;;;;;16.77;6.15;;;7.90;76.10;;;;;;1801012;78;21563;-72
2021/03/31 05:20:35;;;;;;;9.68;5.70;;;8.00;75.40;;;;;;1809273;78;21555;-73
2021/03/31 05:23:03;;;;;;;14.58;6.10;;;8.10;75.00;;;;;;1795628;80;21189;-72
2021/03/31 05:25:31;;;;;;;11.70;5.97;;;8.10;74.90;;;;;;1792108;78;21106;-70
2021/03/31 05:27:59;;;;;;;10.50;5.72;;;8.20;74.70;;;;;;1798053;79;21090;-73
2021/03/31 05:30:27;;;;;;;11.33;5.80;;;8.30;74.20;;;;;;1817752;78;21110;-70
2021/03/31 05:32:55;;;;;;;12.70;6.20;;;8.40;73.90;;;;;;1805463;78;21144;-73
2021/03/31 05:35:23;;;;;;;11.93;6.12;;;8.40;73.30;;;;;;1794056;79;21121;-74
2021/03/31 05:37:50;;;;;;;11.73;6.20;;;8.50;73.00;;;;;;1795461;80;21098;-74
2021/03/31 05:40:20;;;;;;;13.85;6.20;;;8.50;73.10;;;;;;1800004;78;21120;-74
2021/03/31 05:42:49;;;;;;;13.60;5.78;;;8.60;72.70;;;;;;1797391;79;21121;-74
2021/03/31 05:45:17;;;;;;;8.13;4.67;;;8.70;72.30;;;;;;1795472;79;21121;-74
2021/03/31 05:47:45;;;;;;;13.03;6.58;;;8.90;71.90;;;;;;1799851;78;21149;-74
2021/03/31 05:50:15;;;;;;;16.05;6.12;;;8.90;72.20;;;;;;1801231;78;21129;-73
2021/03/31 05:52:47;;;;;;;10.58;5.95;;;9.00;71.60;;;;;;1800196;78;21145;-72
2021/03/31 05:55:17;;;;;;;12.85;5.75;;;9.00;71.20;;;;;;1801663;78;21140;-74
2021/03/31 05:57:46;;;;;;;11.88;5.45;;;9.10;70.60;;;;;;1803106;78;21132;-72
2021/03/31 06:00:21;;;;;;;11.68;6.20;;;9.20;70.40;;;;;;1795802;78;21121;-72
2021/03/31 06:02:49;;;;;;;15.13;6.60;;;9.20;70.20;;;;;;1799717;78;21116;-72
2021/03/31 06:05:19;;;;;;;11.35;6.67;;;9.30;70.70;;;;;;1795500;80;21126;-73
2021/03/31 06:07:50;;;;;;;11.38;6.67;;;9.40;70.10;;;;;;1795822;79;21176;-73
2021/03/31 06:10:24;;;;;;;11.30;6.60;;;9.40;70.00;;;;;;1796179;79;21146;-72
2021/03/31 06:13:00;;;;;;;13.15;6.55;;;9.50;70.20;;;;;;1795947;78;21125;-72
2021/03/31 06:15:42;;;;;;;12.60;6.78;;;9.50;69.80;;;;;;1804492;78;21105;-70
2021/03/31 06:18:15;;;;;;;14.25;7.35;;;9.60;69.50;;;;;;1796317;78;21145;-71
2021/03/31 06:21:04;;;;;;;15.10;7.40;;;9.60;69.00;;;;;;1800266;78;21819;-73
2021/03/31 06:26:31;;;;;;;15.80;6.92;;;9.80;69.10;;;;;;1800274;78;21616;-71
2021/03/31 06:29:07;;;;;;;16.48;7.75;;;9.90;68.50;;;;;;1795731;78;21152;-71
2021/03/31 06:31:43;;;;;;;15.18;8.00;;;10.10;68.20;;;;;;1735945;81;21133;-70
2021/03/31 06:34:17;;;;;;;18.02;7.62;;;9.90;67.40;;;;;;1749638;82;22285;-70
2021/03/31 06:36:50;;;;;;;14.13;7.55;;;10.00;68.00;;;;;;1749869;81;21156;-72
2021/03/31 06:39:31;;;;;;;17.52;7.12;;;9.90;68.30;;;;;;1734633;82;21579;-71
2021/03/31 06:42:18;;;;;;;14.65;6.75;;;10.10;68.00;;;;;;1765755;80;21128;-70
2021/03/31 06:45:07;;;;;;;11.73;7.12;;;10.20;67.60;;;;;;1768725;80;21243;-73
2021/03/31 06:47:39;;;;;;;14.95;7.10;;;10.20;66.90;;;;;;1768880;80;21122;-73
2021/03/31 06:50:11;;;;;;;20.48;7.45;;;10.30;66.70;;;;;;1770977;81;21134;-72
2021/03/31 06:52:58;;;;;;;12.53;6.78;;;10.40;66.30;;;;;;1787055;80;21102;-72
2021/03/31 06:55:28;;;;;;;11.50;6.12;;;10.50;65.80;;;;;;1755453;82;21368;-74
2021/03/31 06:58:00;;;;;;;15.60;6.83;;;10.70;65.00;;;;;;1754091;82;21153;-73
2021/03/31 07:00:37;;;;;;;11.90;6.35;;;10.80;63.60;;;;;;1730943;82;21148;-74
2021/03/31 07:03:08;;;;;;;18.07;8.30;;;10.80;63.10;;;;;;1717743;83;21186;-74
2021/03/31 07:05:40;;;;;;;13.05;6.90;;;10.70;63.60;;;;;;1717597;83;21170;-73
2021/03/31 07:08:12;;;;;;;15.35;7.03;;;10.80;64.50;;;;;;1719314;83;21641;-70
2021/03/31 07:10:55;;;;;;;11.95;6.70;;;10.90;64.10;;;;;;1719250;83;21118;-71
2021/03/31 07:13:33;;;;;;;12.53;6.45;;;11.10;63.40;;;;;;1719347;83;21141;-71
2021/03/31 07:16:05;;;;;;;13.78;6.62;;;11.20;63.00;;;;;;1719420;83;21184;-73
2021/03/31 07:18:34;;;;;;;13.08;7.17;;;11.40;62.20;;;;;;1719760;83;21149;-71
2021/03/31 07:21:04;;;;;;;13.48;7.65;;;11.60;61.10;;;;;;1719531;83;21299;-70
2021/03/31 07:23:34;;;;;;;15.88;6.70;;;11.60;61.10;;;;;;1719741;83;21177;-70
2021/03/31 07:26:02;;;;;;;11.88;6.55;;;11.70;61.90;;;;;;1719341;83;21584;-70
2021/03/31 07:28:32;;;;;;;9.78;5.53;;;11.80;59.80;;;;;;1719336;83;21161;-70
2021/03/31 07:31:03;;;;;;;13.65;5.42;;;11.80;59.50;;;;;;1719759;83;22043;-70
2021/03/31 07:33:39;;;;;;;13.65;5.30;;;11.90;59.70;;;;;;1719669;83;21201;-69
2021/03/31 07:36:10;;;;;;;9.23;5.00;;;12.10;59.20;;;;;;1718951;83;21599;-69
2021/03/31 07:38:41;;;;;;;9.73;4.97;;;12.30;58.70;;;;;;1719652;83;21275;-69
2021/03/31 07:41:09;;;;;;;12.03;5.80;;;12.30;58.30;;;;;;1719401;83;21591;-70
2021/03/31 07:43:42;;;;;;;8.28;4.90;;;12.40;58.10;;;;;;1719391;83;21130;-69
2021/03/31 07:46:22;;;;;;;7.25;4.67;;;12.60;57.90;;;;;;1719669;83;21291;-71
2021/03/31 07:48:50;;;;;;;10.63;5.70;;;12.60;56.70;;;;;;1747968;81;21161;-71
2021/03/31 07:51:26;;;;;;;9.95;5.67;;;12.80;57.40;;;;;;1727538;83;21594;-71
2021/03/31 07:53:58;;;;;;;9.90;5.47;;;12.90;57.50;;;;;;1723342;83;21670;-73
2021/03/31 07:56:35;;;;;;;14.43;6.47;;;13.00;57.20;;;;;;1727755;83;21167;-71
2021/03/31 07:59:11;;;;;;;14.13;7.20;;;13.10;57.50;;;;;;1733668;83;21613;-73
2021/03/31 08:01:42;;;;;;;;;;;13.20;58.00;;;;;;1736105;82;21168;-73
2021/03/31 08:04:13;;;;;;;18.30;7.43;;;13.40;57.10;;;;;;1733291;83;21101;-72
2021/03/31 08:06:43;;;;;;;12.35;7.35;;;13.40;57.40;;;;;;1731334;83;21569;-72
2021/03/31 08:09:21;;;;;;;12.63;6.70;;;13.60;56.70;;;;;;1717809;83;21179;-71
2021/03/31 08:11:54;;;;;;;11.18;6.65;;;13.70;56.70;;;;;;1717119;83;21146;-72
2021/03/31 08:14:35;;;;;;;14.00;7.22;;;13.80;56.40;;;;;;1717675;83;21114;-69
2021/03/31 08:17:12;;;;;;;14.40;7.00;;;13.90;56.00;;;;;;1713183;83;21285;-72
2021/03/31 08:19:44;;;;;;;13.20;7.58;;;14.10;55.70;;;;;;1717643;83;21580;-71
2021/03/31 08:22:23;;;;;;;18.55;8.13;;;14.10;55.40;;;;;;1717607;83;21604;-72
2021/03/31 08:24:56;;;;;;;21.33;8.25;;;14.10;55.20;;;;;;1717571;83;21177;-72
2021/03/31 08:27:26;;;;;;;11.88;7.35;;;14.30;54.90;;;;;;1717721;83;21142;-72
2021/03/31 08:29:57;;;;;;;17.80;7.33;;;14.30;55.20;;;;;;1717564;83;21118;-73
2021/03/31 08:32:27;;;;;;;14.03;6.90;;;14.50;55.00;;;;;;1717429;83;21638;-72
2021/03/31 08:34:56;;;;;;;16.17;8.10;;;14.70;54.10;;;;;;1714570;83;21130;-72
2021/03/31 08:37:30;;;;;;;18.62;8.30;;;14.90;54.00;;;;;;1717721;83;21636;-71
2021/03/31 08:40:01;;;;;;;11.45;7.58;;;15.10;53.50;;;;;;1717477;83;21612;-71
2021/03/31 08:42:29;;;;;;;12.60;7.25;;;15.30;51.60;;;;;;1717672;83;21142;-72
2021/03/31 08:44:59;;;;;;;13.20;7.08;;;15.30;51.00;;;;;;1717621;83;21620;-70
2021/03/31 08:47:34;;;;;;;14.07;7.50;;;15.20;51.80;;;;;;1717390;83;21174;-71
2021/03/31 08:50:07;;;;;;;17.67;7.75;;;15.30;52.00;;;;;;1716875;83;21588;-71
2021/03/31 08:52:38;;;;;;;13.75;8.00;;;15.50;50.90;;;;;;1717448;83;21201;-71
2021/03/31 08:55:13;;;;;;;13.60;7.12;;;15.70;50.90;;;;;;1717901;83;21564;-70
2021/03/31 08:57:41;;;;;;;15.58;7.87;;;15.90;51.30;;;;;;1717559;83;21157;-71
2021/03/31 09:00:12;;;;;;;19.30;8.23;;;16.10;50.90;;;;;;1717977;83;21127;-71
2021/03/31 09:02:43;;;;;;;17.52;8.08;;;16.30;50.40;;;;;;1717602;83;21189;-71
2021/03/31 09:05:14;;;;;;;14.90;7.60;;;16.40;49.30;;;;;;1718018;83;21158;-72
2021/03/31 09:07:43;;;;;;;16.82;7.65;;;16.60;49.90;;;;;;1717466;83;21185;-72
2021/03/31 09:10:13;;;;;;;12.30;6.85;;;16.70;48.60;;;;;;1717598;83;21166;-70
2021/03/31 09:12:41;;;;;;;16.17;7.78;;;16.80;48.20;;;;;;1717740;83;21149;-71
2021/03/31 09:15:09;;;;;;;30.05;14.05;;;16.80;49.10;;;;;;1717968;82;21158;-70
2021/03/31 09:17:37;;;;;;;15.32;9.90;;;16.90;49.00;;;;;;1732117;82;21166;-70
2021/03/31 09:20:09;;;;;;;84.72;36.75;;;16.80;47.80;;;;;;1729347;82;21179;-69
2021/03/31 09:22:37;;;;;;;19.92;10.53;;;16.90;47.90;;;;;;1728754;82;21138;-70
2021/03/31 09:25:11;;;;;;;20.45;8.70;;;16.90;48.60;;;;;;1737673;82;21154;-70
2021/03/31 09:27:41;;;;;;;15.58;8.88;;;16.90;48.40;;;;;;1745584;82;21186;-74
2021/03/31 09:30:14;;;;;;;17.23;8.40;;;16.90;48.40;;;;;;1745330;82;21157;-72
2021/03/31 09:35:20;;;;;;;16.87;9.25;;;17.00;48.30;;;;;;1729962;82;21142;-71
2021/03/31 09:37:53;;;;;;;11.93;8.38;;;16.90;47.90;;;;;;1726787;82;21138;-71
2021/03/31 09:40:29;;;;;;;18.45;9.60;;;16.90;47.80;;;;;;1729698;82;21156;-72
2021/03/31 09:43:04;;;;;;;16.75;9.10;;;16.90;47.90;;;;;;1730088;82;21146;-70
2021/03/31 09:45:38;;;;;;;17.10;9.00;;;16.80;48.00;;;;;;1726024;82;21731;-72
2021/03/31 09:48:07;;;;;;;13.30;8.15;;;16.90;48.30;;;;;;1731384;82;21126;-71
2021/03/31 09:50:38;;;;;;;14.75;9.05;;;17.00;49.00;;;;;;1733997;82;21137;-71
2021/03/31 09:53:06;;;;;;;14.43;8.43;;;16.90;47.90;;;;;;1731391;82;21181;-71
2021/03/31 09:55:39;;;;;;;16.05;9.13;;;17.00;47.90;;;;;;1734297;82;21153;-72
2021/03/31 09:58:08;;;;;;;16.85;8.93;;;17.10;48.20;;;;;;1730416;82;21177;-73
2021/03/31 10:00:40;;;;;;;17.07;8.85;;;17.20;47.90;;;;;;1731846;82;21151;-71
2021/03/31 10:03:09;;;;;;;17.67;8.88;;;17.30;48.00;;;;;;1725618;82;21132;-71
2021/03/31 10:05:37;;;;;;;28.67;15.85;;;17.50;47.50;;;;;;1728793;82;21188;-71
2021/03/31 10:08:10;;;;;;;17.62;10.25;;;17.60;47.70;;;;;;1717001;82;21177;-70
2021/03/31 10:10:50;;;;;;;20.68;9.80;;;17.70;47.30;;;;;;1703587;83;21146;-69
2021/03/31 10:13:21;;;;;;;17.00;9.45;;;17.70;47.10;;;;;;1707463;83;21323;-70
2021/03/31 10:16:04;;;;;;;15.72;9.38;;;17.80;46.60;;;;;;1705918;84;21166;-70
2021/03/31 10:18:34;;;;;;;16.32;9.75;;;17.80;47.30;;;;;;1707400;84;21622;-68
2021/03/31 10:21:05;;;;;;;20.27;9.50;;;17.90;47.30;;;;;;1701772;84;21260;-69
2021/03/31 10:23:37;;;;;;;14.70;9.63;;;18.00;47.00;;;;;;1705461;83;21122;-70
2021/03/31 10:26:33;;;;;;;15.63;8.15;;;18.00;47.10;;;;;;1700692;84;21231;-69
2021/03/31 10:29:07;;;;;;;14.68;7.40;;;18.10;46.50;;;;;;1692325;84;21132;-70
2021/03/31 10:31:40;;;;;;;11.48;6.92;;;18.10;45.70;;;;;;1698619;83;21112;-69
2021/03/31 10:34:10;;;;;;;12.05;7.03;;;18.10;45.80;;;;;;1762641;81;21133;-69
2021/03/31 10:37:29;;;;;;;15.18;7.20;;;18.10;46.20;;;;;;1764894;80;21133;-69
2021/03/31 10:48:13;;;;;;;18.00;10.03;;;18.10;46.20;;;;;;1764361;80;21136;-70
2021/03/31 10:50:46;;;;;;;20.95;10.45;;;18.00;46.50;;;;;;1765299;80;21079;-71
2021/03/31 10:53:10;;;;;;;19.70;9.88;;;17.80;46.30;;;;;;1760758;81;21583;-67
2021/03/31 10:55:43;;;;;;;18.25;9.93;;;17.90;47.10;;;;;;1762460;80;21101;-69
2021/03/31 10:58:12;;;;;;;19.87;9.58;;;18.00;47.00;;;;;;1762233;81;21124;-68
2021/03/31 11:00:40;;;;;;;17.27;8.95;;;18.10;47.60;;;;;;1763492;80;21132;-69
2021/03/31 11:03:09;;;;;;;19.45;9.00;;;18.20;47.50;;;;;;1764663;80;21136;-71
2021/03/31 11:05:37;;;;;;;16.27;9.55;;;18.30;46.90;;;;;;1762853;80;21590;-71
2021/03/31 11:08:06;;;;;;;16.50;9.50;;;18.30;47.30;;;;;;1762516;80;21131;-70
2021/03/31 11:10:34;;;;;;;20.35;9.23;;;18.30;46.80;;;;;;1796026;79;21745;-71
2021/03/31 11:13:02;;;;;;;19.17;10.35;;;18.40;47.60;;;;;;1793915;79;21181;-71
2021/03/31 11:15:30;;;;;;;14.55;8.95;;;18.40;46.70;;;;;;1792994;79;21523;-71
2021/03/31 11:25:58;;;;;;;15.75;9.78;;;18.00;47.50;;;;;;1793580;79;21141;-69
2021/03/31 11:28:26;;;;;;;13.95;7.75;;;18.00;47.40;;;;;;1797305;79;21129;-66
2021/03/31 11:30:55;;;;;;;16.40;8.38;;;18.00;47.40;;;;;;1795741;79;21591;-69
2021/03/31 11:33:25;;;;;;;15.10;8.65;;;18.00;47.80;;;;;;1788116;80;21675;-69
2021/03/31 11:35:53;;;;;;;15.18;9.00;;;18.10;47.60;;;;;;1787803;80;21116;-69
2021/03/31 11:38:21;;;;;;;16.52;8.35;;;18.10;47.60;;;;;;1792180;79;21148;-69
2021/03/31 11:40:49;;;;;;;15.72;7.75;;;18.20;47.50;;;;;;1792750;79;21128;-66
2021/03/31 11:43:18;;;;;;;14.45;8.43;;;18.10;48.10;;;;;;1792942;79;21146;-68
2021/03/31 11:45:49;;;;;;;20.77;9.40;;;18.20;48.40;;;;;;1792710;79;21234;-69
2021/03/31 11:48:17;;;;;;;11.08;7.40;;;18.30;48.60;;;;;;1789313;80;21164;-69
2021/03/31 11:50:45;;;;;;;14.58;7.25;;;18.30;47.50;;;;;;1789039;80;21120;-68
2021/03/31 11:53:13;;;;;;;11.75;7.47;;;18.40;48.40;;;;;;1791248;79;21116;-68
2021/03/31 11:55:43;;;;;;;13.98;8.75;;;18.50;47.90;;;;;;1790807;79;21556;-67
2021/03/31 11:58:10;;;;;;;14.85;8.18;;;18.50;46.80;;;;;;1790329;79;21125;-68
2021/03/31 12:00:39;;;;;;;16.93;8.43;;;18.50;47.20;;;;;;1805394;79;21125;-68
2021/03/31 12:03:07;;;;;;;19.17;9.40;;;18.60;46.90;;;;;;1786978;80;21178;-69
2021/03/31 12:05:34;;;;;;;17.40;8.93;;;18.60;47.20;;;;;;1791680;79;21121;-66
2021/03/31 12:08:03;;;;;;;14.25;8.40;;;18.70;47.30;;;;;;1792220;79;21159;-72
2021/03/31 12:10:31;;;;;;;12.55;7.42;;;18.80;47.30;;;;;;1795841;79;21136;-72
2021/03/31 12:12:58;;;;;;;12.78;7.72;;;18.80;46.70;;;;;;1795742;80;21121;-72
2021/03/31 12:15:27;;;;;;;14.38;7.50;;;18.90;46.70;;;;;;1795626;80;21137;-68
2021/03/31 12:17:54;;;;;;;12.60;7.53;;;18.90;46.20;;;;;;1804824;78;21108;-70
2021/03/31 12:20:22;;;;;;;13.80;7.70;;;19.00;46.60;;;;;;1796852;79;21705;-71
2021/03/31 12:22:50;;;;;;;13.65;7.50;;;19.00;46.20;;;;;;1809164;78;21177;-72
2021/03/31 12:25:21;;;;;;;15.55;7.40;;;19.10;46.30;;;;;;1800264;78;21109;-69
2021/03/31 12:27:52;;;;;;;10.80;6.53;;;19.10;45.90;;;;;;1804525;78;21110;-70
2021/03/31 12:30:21;;;;;;;13.13;7.03;;;19.10;46.20;;;;;;1828489;78;21712;-72
2021/03/31 12:32:49;;;;;;;11.05;6.67;;;19.10;46.60;;;;;;1824659;78;21153;-71
2021/03/31 12:35:18;;;;;;;12.85;6.33;;;19.10;46.60;;;;;;1800252;78;21098;-71
2021/03/31 12:37:46;;;;;;;10.25;6.00;;;19.10;46.10;;;;;;1795731;80;21609;-72
2021/03/31 12:40:14;;;;;;;11.78;6.37;;;19.10;45.50;;;;;;1800561;78;21301;-70
2021/03/31 12:42:42;;;;;;;12.82;5.72;;;19.00;45.60;;;;;;1796450;79;21097;-71
2021/03/31 12:45:12;;;;;;;9.88;6.00;;;19.00;45.70;;;;;;1800421;78;21112;-72
2021/03/31 12:47:41;;;;;;;8.85;5.45;;;18.90;45.90;;;;;;1814487;78;21559;-69
2021/03/31 12:50:13;;;;;;;12.43;5.97;;;18.90;46.30;;;;;;1815899;78;21292;-70
2021/03/31 12:52:59;;;;;;;9.58;5.67;;;19.00;46.10;;;;;;1800647;78;21129;-69
2021/03/31 12:55:35;;;;;;;8.78;5.10;;;18.90;46.60;;;;;;1800367;78;21109;-70
2021/03/31 12:58:06;;;;;;;11.48;5.17;;;19.00;46.60;;;;;;1796132;80;21120;-70
2021/03/31 13:00:29;;;;;;;11.57;5.92;;;19.10;46.70;;;;;;1796134;78;21565;-72
2021/03/31 13:02:59;;;;;;;9.43;5.70;;;19.10;46.40;;;;;;1797364;78;21129;-72
2021/03/31 13:05:27;;;;;;;12.53;5.75;;;19.20;46.60;;;;;;1800674;78;21299;-72
2021/03/31 13:07:54;;;;;;;11.35;5.25;;;19.20;46.50;;;;;;1800624;78;21125;-73
2021/03/31 13:10:41;;;;;;;11.55;5.67;;;19.30;46.50;;;;;;1791849;80;21571;-73
2021/03/31 13:32:24;;;;;;;;;;;19.20;47.10;;;;;;1757860;81;21161;-73
2021/03/31 13:34:56;;;;;;;10.00;5.00;;;19.20;47.20;;;;;;1742657;81;20430;-72
2021/03/31 13:37:28;;;;;;;10.78;5.17;;;19.10;48.10;;;;;;1752895;81;21646;-73
2021/03/31 13:39:52;;;;;;;9.03;4.65;;;19.10;47.30;;;;;;1751216;81;21286;-72
2021/03/31 13:42:23;;;;;;;13.18;5.22;;;19.10;47.30;;;;;;1751052;81;21673;-71
2021/03/31 13:44:52;;;;;;;10.05;5.42;;;19.00;47.40;;;;;;1752218;81;21133;-70
2021/03/31 13:47:22;;;;;;;10.70;5.40;;;19.00;47.80;;;;;;1751614;80;21144;-71